sensor_id;sensor_type;location;lat;lon;timestamp;P1;durP1;ratioP1;P2;durP2;ratioP2
74495;SDS011;62979;55.720;37.606;2023-09-08T00:00:50;1.58;;;0.28;;
74495;SDS011;62979;55.720;37.606;2023-09-08T00:03:17;2.15;;;0.65;;
74495;SDS011;62979;55.720;37.606;2023-09-08T00:05:44;2.00;;;0.38;;
74495;SDS011;62979;55.720;37.606;2023-09-08T00:08:12;1.73;;;0.60;;
74495;SDS011;62979;55.720;37.606;2023-09-08T00:10:39;1.33;;;0.63;;
74495;SDS011;62979;55.720;37.606;2023-09-08T00:13:06;3.47;;;0.70;;
74495;SDS011;62979;55.720;37.606;2023-09-08T00:15:33;1.27;;;0.30;;
74495;SDS011;62979;55.720;37.606;2023-09-08T00:18:01;2.05;;;0.60;;
74495;SDS011;62979;55.720;37.606;2023-09-08T00:20:27;0.60;;;0.40;;
74495;SDS011;62979;55.720;37.606;2023-09-08T00:22:54;3.05;;;0.50;;
74495;SDS011;62979;55.720;37.606;2023-09-08T00:25:22;0.90;;;0.30;;
74495;SDS011;62979;55.720;37.606;2023-09-08T00:27:49;1.80;;;0.65;;
74495;SDS011;62979;55.720;37.606;2023-09-08T00:30:16;1.05;;;0.32;;
74495;SDS011;62979;55.720;37.606;2023-09-08T00:32:43;1.25;;;0.90;;
74495;SDS011;62979;55.720;37.606;2023-09-08T00:35:11;1.10;;;0.50;;
74495;SDS011;62979;55.720;37.606;2023-09-08T00:37:39;2.83;;;0.45;;
74495;SDS011;62979;55.720;37.606;2023-09-08T00:40:06;1.27;;;0.50;;
74495;SDS011;62979;55.720;37.606;2023-09-08T00:42:35;1.08;;;0.47;;
74495;SDS011;62979;55.720;37.606;2023-09-08T00:45:03;0.98;;;0.40;;
74495;SDS011;62979;55.720;37.606;2023-09-08T00:47:31;0.77;;;0.55;;
74495;SDS011;62979;55.720;37.606;2023-09-08T00:49:58;4.22;;;0.50;;
74495;SDS011;62979;55.720;37.606;2023-09-08T00:52:25;1.58;;;0.60;;
74495;SDS011;62979;55.720;37.606;2023-09-08T00:54:56;3.65;;;0.50;;
74495;SDS011;62979;55.720;37.606;2023-09-08T00:57:23;2.45;;;0.43;;
74495;SDS011;62979;55.720;37.606;2023-09-08T00:59:52;1.15;;;0.45;;
74495;SDS011;62979;55.720;37.606;2023-09-08T01:02:20;1.65;;;0.50;;
74495;SDS011;62979;55.720;37.606;2023-09-08T01:04:47;1.98;;;0.40;;
74495;SDS011;62979;55.720;37.606;2023-09-08T01:07:15;2.03;;;0.40;;
74495;SDS011;62979;55.720;37.606;2023-09-08T01:09:45;2.05;;;0.50;;
74495;SDS011;62979;55.720;37.606;2023-09-08T01:12:13;3.22;;;0.73;;
74495;SDS011;62979;55.720;37.606;2023-09-08T01:14:41;2.53;;;0.90;;
74495;SDS011;62979;55.720;37.606;2023-09-08T01:17:10;3.72;;;0.47;;
74495;SDS011;62979;55.720;37.606;2023-09-08T01:19:37;1.15;;;0.50;;
74495;SDS011;62979;55.720;37.606;2023-09-08T01:25:19;1.95;;;0.50;;
74495;SDS011;62979;55.720;37.606;2023-09-08T01:27:50;0.85;;;0.47;;
74495;SDS011;62979;55.720;37.606;2023-09-08T01:30:19;5.00;;;0.43;;
74495;SDS011;62979;55.720;37.606;2023-09-08T01:32:49;1.83;;;0.63;;
74495;SDS011;62979;55.720;37.606;2023-09-08T01:35:18;2.25;;;0.60;;
74495;SDS011;62979;55.720;37.606;2023-09-08T01:37:45;1.08;;;0.50;;
74495;SDS011;62979;55.720;37.606;2023-09-08T01:40:15;0.63;;;0.30;;
74495;SDS011;62979;55.720;37.606;2023-09-08T01:42:45;3.28;;;0.40;;
74495;SDS011;62979;55.720;37.606;2023-09-08T01:45:12;1.77;;;0.50;;
74495;SDS011;62979;55.720;37.606;2023-09-08T01:47:38;1.77;;;0.57;;
74495;SDS011;62979;55.720;37.606;2023-09-08T01:50:06;0.90;;;0.43;;
74495;SDS011;62979;55.720;37.606;2023-09-08T01:52:33;1.05;;;0.70;;
74495;SDS011;62979;55.720;37.606;2023-09-08T01:55:00;1.38;;;0.70;;
74495;SDS011;62979;55.720;37.606;2023-09-08T01:57:27;1.30;;;0.63;;
74495;SDS011;62979;55.720;37.606;2023-09-08T01:59:56;3.65;;;0.80;;
74495;SDS011;62979;55.720;37.606;2023-09-08T02:02:22;1.00;;;0.68;;
74495;SDS011;62979;55.720;37.606;2023-09-08T02:04:49;2.50;;;1.02;;
74495;SDS011;62979;55.720;37.606;2023-09-08T02:07:16;2.33;;;0.55;;
74495;SDS011;62979;55.720;37.606;2023-09-08T02:09:43;0.65;;;0.40;;
74495;SDS011;62979;55.720;37.606;2023-09-08T02:12:10;1.42;;;0.60;;
74495;SDS011;62979;55.720;37.606;2023-09-08T02:14:37;1.85;;;0.63;;
74495;SDS011;62979;55.720;37.606;2023-09-08T02:17:05;2.55;;;0.45;;
74495;SDS011;62979;55.720;37.606;2023-09-08T02:19:32;1.33;;;0.47;;
74495;SDS011;62979;55.720;37.606;2023-09-08T02:21:59;0.57;;;0.30;;
74495;SDS011;62979;55.720;37.606;2023-09-08T02:24:26;1.13;;;0.60;;
74495;SDS011;62979;55.720;37.606;2023-09-08T02:26:53;1.48;;;0.47;;
74495;SDS011;62979;55.720;37.606;2023-09-08T02:29:20;0.75;;;0.57;;
74495;SDS011;62979;55.720;37.606;2023-09-08T02:31:47;0.82;;;0.40;;
74495;SDS011;62979;55.720;37.606;2023-09-08T02:34:15;1.60;;;0.65;;
74495;SDS011;62979;55.720;37.606;2023-09-08T02:36:42;4.82;;;0.30;;
74495;SDS011;62979;55.720;37.606;2023-09-08T02:39:12;1.13;;;0.40;;
74495;SDS011;62979;55.720;37.606;2023-09-08T02:41:39;0.57;;;0.35;;
74495;SDS011;62979;55.720;37.606;2023-09-08T02:44:06;3.00;;;1.17;;
74495;SDS011;62979;55.720;37.606;2023-09-08T02:46:33;7.38;;;0.65;;
74495;SDS011;62979;55.720;37.606;2023-09-08T02:49:00;1.38;;;0.50;;
74495;SDS011;62979;55.720;37.606;2023-09-08T02:51:28;1.15;;;0.70;;
74495;SDS011;62979;55.720;37.606;2023-09-08T02:53:55;1.00;;;0.40;;
74495;SDS011;62979;55.720;37.606;2023-09-08T02:56:22;3.17;;;0.32;;
74495;SDS011;62979;55.720;37.606;2023-09-08T02:58:49;1.95;;;0.50;;
74495;SDS011;62979;55.720;37.606;2023-09-08T03:01:16;0.82;;;0.30;;
74495;SDS011;62979;55.720;37.606;2023-09-08T03:03:45;0.95;;;0.40;;
74495;SDS011;62979;55.720;37.606;2023-09-08T03:06:13;0.75;;;0.30;;
74495;SDS011;62979;55.720;37.606;2023-09-08T03:08:43;1.20;;;0.30;;
74495;SDS011;62979;55.720;37.606;2023-09-08T03:11:09;3.38;;;0.70;;
74495;SDS011;62979;55.720;37.606;2023-09-08T03:13:36;1.48;;;0.22;;
74495;SDS011;62979;55.720;37.606;2023-09-08T03:16:03;0.90;;;0.28;;
74495;SDS011;62979;55.720;37.606;2023-09-08T03:18:31;3.42;;;0.47;;
74495;SDS011;62979;55.720;37.606;2023-09-08T03:20:59;1.88;;;0.35;;
74495;SDS011;62979;55.720;37.606;2023-09-08T03:23:28;2.15;;;0.30;;
74495;SDS011;62979;55.720;37.606;2023-09-08T03:25:56;0.57;;;0.20;;
74495;SDS011;62979;55.720;37.606;2023-09-08T03:28:23;2.38;;;0.17;;
74495;SDS011;62979;55.720;37.606;2023-09-08T03:30:50;2.25;;;0.40;;
74495;SDS011;62979;55.720;37.606;2023-09-08T03:33:17;1.25;;;0.45;;
74495;SDS011;62979;55.720;37.606;2023-09-08T03:35:44;0.68;;;0.20;;
74495;SDS011;62979;55.720;37.606;2023-09-08T03:38:11;1.50;;;0.45;;
74495;SDS011;62979;55.720;37.606;2023-09-08T03:40:37;1.92;;;0.40;;
74495;SDS011;62979;55.720;37.606;2023-09-08T03:43:06;5.32;;;0.63;;
74495;SDS011;62979;55.720;37.606;2023-09-08T03:45:32;3.78;;;0.50;;
74495;SDS011;62979;55.720;37.606;2023-09-08T03:47:59;1.80;;;0.50;;
74495;SDS011;62979;55.720;37.606;2023-09-08T03:50:26;2.40;;;0.73;;
74495;SDS011;62979;55.720;37.606;2023-09-08T03:52:53;0.80;;;0.77;;
74495;SDS011;62979;55.720;37.606;2023-09-08T03:55:20;1.60;;;0.25;;
74495;SDS011;62979;55.720;37.606;2023-09-08T03:57:47;1.80;;;0.40;;
74495;SDS011;62979;55.720;37.606;2023-09-08T04:00:15;1.10;;;0.47;;
74495;SDS011;62979;55.720;37.606;2023-09-08T04:02:46;2.13;;;0.52;;
74495;SDS011;62979;55.720;37.606;2023-09-08T04:07:42;0.98;;;0.65;;
74495;SDS011;62979;55.720;37.606;2023-09-08T04:10:09;2.33;;;0.43;;
74495;SDS011;62979;55.720;37.606;2023-09-08T04:12:38;1.23;;;0.65;;
74495;SDS011;62979;55.720;37.606;2023-09-08T04:15:05;1.48;;;0.73;;
74495;SDS011;62979;55.720;37.606;2023-09-08T04:17:35;1.13;;;0.30;;
74495;SDS011;62979;55.720;37.606;2023-09-08T04:20:02;0.57;;;0.40;;
74495;SDS011;62979;55.720;37.606;2023-09-08T04:22:31;1.98;;;0.30;;
74495;SDS011;62979;55.720;37.606;2023-09-08T04:24:58;0.93;;;0.22;;
74495;SDS011;62979;55.720;37.606;2023-09-08T04:27:24;1.45;;;0.30;;
74495;SDS011;62979;55.720;37.606;2023-09-08T04:29:52;1.75;;;0.40;;
74495;SDS011;62979;55.720;37.606;2023-09-08T04:32:18;1.35;;;0.50;;
74495;SDS011;62979;55.720;37.606;2023-09-08T04:34:47;2.10;;;0.25;;
74495;SDS011;62979;55.720;37.606;2023-09-08T04:37:14;0.47;;;0.30;;
74495;SDS011;62979;55.720;37.606;2023-09-08T04:39:41;2.67;;;0.13;;
74495;SDS011;62979;55.720;37.606;2023-09-08T04:42:09;0.80;;;0.43;;
74495;SDS011;62979;55.720;37.606;2023-09-08T04:44:38;2.53;;;0.30;;
74495;SDS011;62979;55.720;37.606;2023-09-08T04:47:04;1.55;;;0.40;;
74495;SDS011;62979;55.720;37.606;2023-09-08T04:49:31;0.90;;;0.32;;
74495;SDS011;62979;55.720;37.606;2023-09-08T04:52:00;2.40;;;0.20;;
74495;SDS011;62979;55.720;37.606;2023-09-08T04:54:26;1.10;;;0.32;;
74495;SDS011;62979;55.720;37.606;2023-09-08T04:56:53;1.90;;;0.70;;
74495;SDS011;62979;55.720;37.606;2023-09-08T04:59:21;7.78;;;0.70;;
74495;SDS011;62979;55.720;37.606;2023-09-08T05:04:16;2.10;;;0.65;;
74495;SDS011;62979;55.720;37.606;2023-09-08T05:06:43;1.40;;;0.50;;
74495;SDS011;62979;55.720;37.606;2023-09-08T05:09:12;1.35;;;0.20;;
74495;SDS011;62979;55.720;37.606;2023-09-08T05:11:39;1.23;;;0.60;;
74495;SDS011;62979;55.720;37.606;2023-09-08T05:14:06;3.47;;;0.20;;
74495;SDS011;62979;55.720;37.606;2023-09-08T05:16:33;0.85;;;0.70;;
74495;SDS011;62979;55.720;37.606;2023-09-08T05:19:10;1.88;;;0.20;;
74495;SDS011;62979;55.720;37.606;2023-09-08T05:24:05;3.30;;;0.40;;
74495;SDS011;62979;55.720;37.606;2023-09-08T05:29:04;0.95;;;0.43;;
74495;SDS011;62979;55.720;37.606;2023-09-08T05:31:31;2.22;;;0.40;;
74495;SDS011;62979;55.720;37.606;2023-09-08T05:33:58;1.27;;;0.40;;
74495;SDS011;62979;55.720;37.606;2023-09-08T05:36:25;1.15;;;0.65;;
74495;SDS011;62979;55.720;37.606;2023-09-08T05:38:52;2.05;;;0.20;;
74495;SDS011;62979;55.720;37.606;2023-09-08T05:41:18;0.80;;;0.28;;
74495;SDS011;62979;55.720;37.606;2023-09-08T05:43:47;0.57;;;0.20;;
74495;SDS011;62979;55.720;37.606;2023-09-08T05:46:14;1.05;;;0.40;;
74495;SDS011;62979;55.720;37.606;2023-09-08T05:48:41;0.82;;;0.32;;
74495;SDS011;62979;55.720;37.606;2023-09-08T05:51:08;1.30;;;0.50;;
74495;SDS011;62979;55.720;37.606;2023-09-08T05:53:35;3.88;;;0.22;;
74495;SDS011;62979;55.720;37.606;2023-09-08T05:56:04;1.73;;;0.20;;
74495;SDS011;62979;55.720;37.606;2023-09-08T05:58:31;0.93;;;0.40;;
74495;SDS011;62979;55.720;37.606;2023-09-08T06:01:00;1.98;;;0.30;;
74495;SDS011;62979;55.720;37.606;2023-09-08T06:03:27;1.75;;;0.50;;
74495;SDS011;62979;55.720;37.606;2023-09-08T06:05:55;2.05;;;0.20;;
74495;SDS011;62979;55.720;37.606;2023-09-08T06:08:22;1.70;;;0.32;;
74495;SDS011;62979;55.720;37.606;2023-09-08T06:10:49;2.05;;;0.50;;
74495;SDS011;62979;55.720;37.606;2023-09-08T06:13:16;2.65;;;0.52;;
74495;SDS011;62979;55.720;37.606;2023-09-08T06:15:43;1.20;;;0.45;;
74495;SDS011;62979;55.720;37.606;2023-09-08T06:18:11;2.55;;;0.60;;
74495;SDS011;62979;55.720;37.606;2023-09-08T06:20:43;3.47;;;0.70;;
74495;SDS011;62979;55.720;37.606;2023-09-08T06:23:11;1.60;;;0.60;;
74495;SDS011;62979;55.720;37.606;2023-09-08T06:25:39;1.77;;;0.55;;
74495;SDS011;62979;55.720;37.606;2023-09-08T06:28:06;0.63;;;0.20;;
74495;SDS011;62979;55.720;37.606;2023-09-08T06:30:33;3.80;;;0.30;;
74495;SDS011;62979;55.720;37.606;2023-09-08T06:33:00;2.17;;;0.57;;
74495;SDS011;62979;55.720;37.606;2023-09-08T06:35:29;2.88;;;0.60;;
74495;SDS011;62979;55.720;37.606;2023-09-08T06:37:56;3.03;;;0.40;;
74495;SDS011;62979;55.720;37.606;2023-09-08T06:40:23;2.42;;;0.77;;
74495;SDS011;62979;55.720;37.606;2023-09-08T06:42:50;1.88;;;0.20;;
74495;SDS011;62979;55.720;37.606;2023-09-08T06:45:17;0.50;;;0.30;;
74495;SDS011;62979;55.720;37.606;2023-09-08T06:47:44;1.67;;;0.73;;
74495;SDS011;62979;55.720;37.606;2023-09-08T06:50:11;3.05;;;0.45;;
74495;SDS011;62979;55.720;37.606;2023-09-08T06:52:39;1.55;;;0.40;;
74495;SDS011;62979;55.720;37.606;2023-09-08T06:55:07;2.75;;;0.47;;
74495;SDS011;62979;55.720;37.606;2023-09-08T07:00:01;3.72;;;0.43;;
74495;SDS011;62979;55.720;37.606;2023-09-08T07:02:32;3.55;;;0.60;;
74495;SDS011;62979;55.720;37.606;2023-09-08T07:04:59;3.40;;;1.15;;
74495;SDS011;62979;55.720;37.606;2023-09-08T07:07:31;0.65;;;0.20;;
74495;SDS011;62979;55.720;37.606;2023-09-08T07:09:59;1.48;;;0.47;;
74495;SDS011;62979;55.720;37.606;2023-09-08T07:12:27;2.60;;;0.40;;
74495;SDS011;62979;55.720;37.606;2023-09-08T07:14:54;0.65;;;0.30;;
74495;SDS011;62979;55.720;37.606;2023-09-08T07:17:21;2.80;;;0.80;;
74495;SDS011;62979;55.720;37.606;2023-09-08T07:19:48;0.70;;;0.20;;
74495;SDS011;62979;55.720;37.606;2023-09-08T07:22:15;1.20;;;0.43;;
74495;SDS011;62979;55.720;37.606;2023-09-08T07:24:42;1.05;;;0.28;;
74495;SDS011;62979;55.720;37.606;2023-09-08T07:29:39;2.08;;;0.45;;
74495;SDS011;62979;55.720;37.606;2023-09-08T07:32:06;0.60;;;0.20;;
74495;SDS011;62979;55.720;37.606;2023-09-08T07:34:33;2.33;;;0.50;;
74495;SDS011;62979;55.720;37.606;2023-09-08T07:37:00;1.30;;;0.60;;
74495;SDS011;62979;55.720;37.606;2023-09-08T07:39:27;0.85;;;0.30;;
74495;SDS011;62979;55.720;37.606;2023-09-08T07:41:55;1.52;;;0.30;;
74495;SDS011;62979;55.720;37.606;2023-09-08T07:44:23;2.08;;;0.50;;
74495;SDS011;62979;55.720;37.606;2023-09-08T07:46:50;7.18;;;0.85;;
74495;SDS011;62979;55.720;37.606;2023-09-08T07:49:18;0.80;;;0.50;;
74495;SDS011;62979;55.720;37.606;2023-09-08T07:54:12;1.58;;;0.40;;
74495;SDS011;62979;55.720;37.606;2023-09-08T07:56:39;2.58;;;0.40;;
74495;SDS011;62979;55.720;37.606;2023-09-08T07:59:06;1.30;;;0.38;;
74495;SDS011;62979;55.720;37.606;2023-09-08T08:01:35;0.73;;;0.30;;
74495;SDS011;62979;55.720;37.606;2023-09-08T08:04:01;1.45;;;0.40;;
74495;SDS011;62979;55.720;37.606;2023-09-08T08:06:29;0.80;;;0.32;;
74495;SDS011;62979;55.720;37.606;2023-09-08T08:08:56;1.83;;;0.32;;
74495;SDS011;62979;55.720;37.606;2023-09-08T08:11:23;0.77;;;0.32;;
74495;SDS011;62979;55.720;37.606;2023-09-08T08:13:50;1.35;;;0.20;;
74495;SDS011;62979;55.720;37.606;2023-09-08T08:16:17;1.52;;;0.32;;
74495;SDS011;62979;55.720;37.606;2023-09-08T08:18:47;1.52;;;0.30;;
74495;SDS011;62979;55.720;37.606;2023-09-08T08:21:15;0.95;;;0.32;;
74495;SDS011;62979;55.720;37.606;2023-09-08T08:23:42;3.88;;;0.70;;
74495;SDS011;62979;55.720;37.606;2023-09-08T08:26:09;5.95;;;0.20;;
74495;SDS011;62979;55.720;37.606;2023-09-08T08:28:35;2.58;;;0.30;;
74495;SDS011;62979;55.720;37.606;2023-09-08T08:31:02;1.30;;;0.50;;
74495;SDS011;62979;55.720;37.606;2023-09-08T08:33:29;0.85;;;0.43;;
74495;SDS011;62979;55.720;37.606;2023-09-08T08:35:58;0.52;;;0.20;;
74495;SDS011;62979;55.720;37.606;2023-09-08T08:38:25;1.17;;;0.30;;
74495;SDS011;62979;55.720;37.606;2023-09-08T08:40:52;3.75;;;0.30;;
74495;SDS011;62979;55.720;37.606;2023-09-08T08:43:19;0.50;;;0.20;;
74495;SDS011;62979;55.720;37.606;2023-09-08T08:45:48;0.40;;;0.20;;
74495;SDS011;62979;55.720;37.606;2023-09-08T08:48:17;0.50;;;0.20;;
74495;SDS011;62979;55.720;37.606;2023-09-08T08:50:49;3.60;;;0.38;;
74495;SDS011;62979;55.720;37.606;2023-09-08T08:53:20;0.70;;;0.32;;
74495;SDS011;62979;55.720;37.606;2023-09-08T08:55:47;1.27;;;0.28;;
74495;SDS011;62979;55.720;37.606;2023-09-08T08:58:19;1.80;;;1.15;;
74495;SDS011;62979;55.720;37.606;2023-09-08T09:00:50;1.25;;;0.47;;
74495;SDS011;62979;55.720;37.606;2023-09-08T09:03:19;2.58;;;0.50;;
74495;SDS011;62979;55.720;37.606;2023-09-08T09:05:48;2.20;;;0.20;;
74495;SDS011;62979;55.720;37.606;2023-09-08T09:08:16;0.95;;;0.13;;
74495;SDS011;62979;55.720;37.606;2023-09-08T09:10:45;1.05;;;0.35;;
74495;SDS011;62979;55.720;37.606;2023-09-08T09:13:12;1.20;;;0.22;;
74495;SDS011;62979;55.720;37.606;2023-09-08T09:15:39;1.95;;;0.10;;
74495;SDS011;62979;55.720;37.606;2023-09-08T09:18:06;1.52;;;0.32;;
74495;SDS011;62979;55.720;37.606;2023-09-08T09:20:34;3.70;;;0.80;;
74495;SDS011;62979;55.720;37.606;2023-09-08T09:23:01;0.60;;;0.20;;
74495;SDS011;62979;55.720;37.606;2023-09-08T09:25:30;0.55;;;0.30;;
74495;SDS011;62979;55.720;37.606;2023-09-08T09:28:00;2.20;;;0.50;;
74495;SDS011;62979;55.720;37.606;2023-09-08T09:30:44;2.85;;;0.30;;
74495;SDS011;62979;55.720;37.606;2023-09-08T09:33:14;0.65;;;0.32;;
74495;SDS011;62979;55.720;37.606;2023-09-08T09:35:42;4.13;;;0.40;;
74495;SDS011;62979;55.720;37.606;2023-09-08T09:38:11;4.30;;;0.30;;
74495;SDS011;62979;55.720;37.606;2023-09-08T09:40:39;2.67;;;0.10;;
74495;SDS011;62979;55.720;37.606;2023-09-08T09:45:36;0.90;;;0.10;;
74495;SDS011;62979;55.720;37.606;2023-09-08T09:48:05;1.50;;;0.28;;
74495;SDS011;62979;55.720;37.606;2023-09-08T09:50:36;2.28;;;0.40;;
74495;SDS011;62979;55.720;37.606;2023-09-08T09:53:07;0.75;;;0.22;;
74495;SDS011;62979;55.720;37.606;2023-09-08T09:55:37;1.25;;;0.30;;
74495;SDS011;62979;55.720;37.606;2023-09-08T09:58:06;3.33;;;0.38;;
74495;SDS011;62979;55.720;37.606;2023-09-08T10:00:36;0.80;;;0.40;;
74495;SDS011;62979;55.720;37.606;2023-09-08T10:03:05;1.42;;;0.40;;
74495;SDS011;62979;55.720;37.606;2023-09-08T10:08:00;1.52;;;0.45;;
74495;SDS011;62979;55.720;37.606;2023-09-08T10:10:27;0.63;;;0.22;;
74495;SDS011;62979;55.720;37.606;2023-09-08T10:13:01;2.65;;;0.30;;
74495;SDS011;62979;55.720;37.606;2023-09-08T10:15:33;3.15;;;0.30;;
74495;SDS011;62979;55.720;37.606;2023-09-08T10:18:03;0.75;;;0.32;;
74495;SDS011;62979;55.720;37.606;2023-09-08T10:20:32;2.83;;;0.52;;
74495;SDS011;62979;55.720;37.606;2023-09-08T10:23:04;1.63;;;0.30;;
74495;SDS011;62979;55.720;37.606;2023-09-08T10:25:39;4.30;;;0.60;;
74495;SDS011;62979;55.720;37.606;2023-09-08T10:28:12;5.45;;;0.82;;
74495;SDS011;62979;55.720;37.606;2023-09-08T10:30:40;2.15;;;0.35;;
74495;SDS011;62979;55.720;37.606;2023-09-08T10:33:08;4.32;;;1.15;;
74495;SDS011;62979;55.720;37.606;2023-09-08T10:35:37;3.47;;;0.75;;
74495;SDS011;62979;55.720;37.606;2023-09-08T10:38:23;2.10;;;0.82;;
74495;SDS011;62979;55.720;37.606;2023-09-08T10:40:52;1.50;;;0.43;;
74495;SDS011;62979;55.720;37.606;2023-09-08T10:45:47;3.83;;;1.17;;
74495;SDS011;62979;55.720;37.606;2023-09-08T10:48:14;4.43;;;0.65;;
74495;SDS011;62979;55.720;37.606;2023-09-08T10:50:42;3.08;;;0.85;;
74495;SDS011;62979;55.720;37.606;2023-09-08T10:53:13;2.75;;;1.45;;
74495;SDS011;62979;55.720;37.606;2023-09-08T10:55:42;2.63;;;0.90;;
74495;SDS011;62979;55.720;37.606;2023-09-08T10:58:28;3.05;;;0.95;;
74495;SDS011;62979;55.720;37.606;2023-09-08T11:01:00;1.55;;;1.20;;
74495;SDS011;62979;55.720;37.606;2023-09-08T11:03:42;1.75;;;1.25;;
74495;SDS011;62979;55.720;37.606;2023-09-08T11:06:12;2.08;;;0.63;;
74495;SDS011;62979;55.720;37.606;2023-09-08T11:08:43;2.47;;;0.90;;
74495;SDS011;62979;55.720;37.606;2023-09-08T11:11:12;2.40;;;0.80;;
74495;SDS011;62979;55.720;37.606;2023-09-08T11:13:41;1.55;;;0.77;;
74495;SDS011;62979;55.720;37.606;2023-09-08T11:16:12;2.60;;;0.63;;
74495;SDS011;62979;55.720;37.606;2023-09-08T11:18:42;1.70;;;0.43;;
74495;SDS011;62979;55.720;37.606;2023-09-08T11:21:09;3.58;;;0.55;;
74495;SDS011;62979;55.720;37.606;2023-09-08T11:23:37;3.47;;;0.57;;
74495;SDS011;62979;55.720;37.606;2023-09-08T11:26:06;3.47;;;1.90;;
74495;SDS011;62979;55.720;37.606;2023-09-08T11:28:34;2.30;;;0.60;;
74495;SDS011;62979;55.720;37.606;2023-09-08T11:31:01;2.72;;;0.40;;
74495;SDS011;62979;55.720;37.606;2023-09-08T11:33:33;2.20;;;0.38;;
74495;SDS011;62979;55.720;37.606;2023-09-08T11:36:10;3.65;;;0.75;;
74495;SDS011;62979;55.720;37.606;2023-09-08T11:38:41;3.80;;;0.90;;
74495;SDS011;62979;55.720;37.606;2023-09-08T11:41:10;2.30;;;0.80;;
74495;SDS011;62979;55.720;37.606;2023-09-08T11:43:37;1.95;;;0.80;;
74495;SDS011;62979;55.720;37.606;2023-09-08T11:46:04;3.65;;;1.02;;
74495;SDS011;62979;55.720;37.606;2023-09-08T11:48:34;1.92;;;0.50;;
74495;SDS011;62979;55.720;37.606;2023-09-08T11:51:01;2.92;;;0.52;;
74495;SDS011;62979;55.720;37.606;2023-09-08T11:53:28;2.70;;;0.52;;
74495;SDS011;62979;55.720;37.606;2023-09-08T11:55:58;2.92;;;0.80;;
74495;SDS011;62979;55.720;37.606;2023-09-08T11:58:25;4.72;;;0.80;;
74495;SDS011;62979;55.720;37.606;2023-09-08T12:00:53;4.28;;;0.80;;
74495;SDS011;62979;55.720;37.606;2023-09-08T12:03:20;2.85;;;1.15;;
74495;SDS011;62979;55.720;37.606;2023-09-08T12:05:51;1.90;;;1.27;;
74495;SDS011;62979;55.720;37.606;2023-09-08T12:08:20;3.70;;;1.70;;
74495;SDS011;62979;55.720;37.606;2023-09-08T12:10:47;3.22;;;0.57;;
74495;SDS011;62979;55.720;37.606;2023-09-08T12:13:19;6.38;;;0.88;;
74495;SDS011;62979;55.720;37.606;2023-09-08T12:15:48;2.90;;;0.30;;
74495;SDS011;62979;55.720;37.606;2023-09-08T12:18:15;3.28;;;0.50;;
74495;SDS011;62979;55.720;37.606;2023-09-08T12:20:42;3.80;;;1.05;;
74495;SDS011;62979;55.720;37.606;2023-09-08T12:23:16;1.42;;;0.55;;
74495;SDS011;62979;55.720;37.606;2023-09-08T12:25:46;2.63;;;0.60;;
74495;SDS011;62979;55.720;37.606;2023-09-08T12:28:16;2.55;;;0.50;;
74495;SDS011;62979;55.720;37.606;2023-09-08T12:30:43;6.13;;;1.05;;
74495;SDS011;62979;55.720;37.606;2023-09-08T12:33:11;3.20;;;0.32;;
74495;SDS011;62979;55.720;37.606;2023-09-08T12:35:42;2.10;;;0.32;;
74495;SDS011;62979;55.720;37.606;2023-09-08T12:38:09;1.92;;;0.43;;
74495;SDS011;62979;55.720;37.606;2023-09-08T12:40:38;1.77;;;0.40;;
74495;SDS011;62979;55.720;37.606;2023-09-08T12:43:05;0.80;;;0.30;;
74495;SDS011;62979;55.720;37.606;2023-09-08T12:45:32;1.42;;;0.30;;
74495;SDS011;62979;55.720;37.606;2023-09-08T12:48:00;2.58;;;0.50;;
74495;SDS011;62979;55.720;37.606;2023-09-08T12:50:28;3.03;;;0.52;;
74495;SDS011;62979;55.720;37.606;2023-09-08T12:52:55;1.33;;;0.50;;
74495;SDS011;62979;55.720;37.606;2023-09-08T12:55:23;0.55;;;0.20;;
74495;SDS011;62979;55.720;37.606;2023-09-08T12:57:51;1.15;;;0.45;;
74495;SDS011;62979;55.720;37.606;2023-09-08T13:00:20;0.30;;;0.20;;
74495;SDS011;62979;55.720;37.606;2023-09-08T13:02:48;3.42;;;1.00;;
74495;SDS011;62979;55.720;37.606;2023-09-08T13:05:16;1.38;;;0.10;;
74495;SDS011;62979;55.720;37.606;2023-09-08T13:07:43;4.45;;;0.47;;
74495;SDS011;62979;55.720;37.606;2023-09-08T13:10:10;0.75;;;0.25;;
74495;SDS011;62979;55.720;37.606;2023-09-08T13:12:37;2.53;;;0.32;;
74495;SDS011;62979;55.720;37.606;2023-09-08T13:15:06;1.05;;;0.10;;
74495;SDS011;62979;55.720;37.606;2023-09-08T13:17:33;3.00;;;0.40;;
74495;SDS011;62979;55.720;37.606;2023-09-08T13:20:01;3.88;;;0.55;;
74495;SDS011;62979;55.720;37.606;2023-09-08T13:24:55;0.77;;;0.43;;
74495;SDS011;62979;55.720;37.606;2023-09-08T13:27:21;2.55;;;0.30;;
74495;SDS011;62979;55.720;37.606;2023-09-08T13:29:50;4.05;;;0.20;;
74495;SDS011;62979;55.720;37.606;2023-09-08T13:32:18;3.55;;;1.48;;
74495;SDS011;62979;55.720;37.606;2023-09-08T13:34:45;7.03;;;1.35;;
74495;SDS011;62979;55.720;37.606;2023-09-08T13:37:13;5.63;;;2.63;;
74495;SDS011;62979;55.720;37.606;2023-09-08T13:39:40;1.25;;;0.20;;
74495;SDS011;62979;55.720;37.606;2023-09-08T13:42:07;1.23;;;0.30;;
74495;SDS011;62979;55.720;37.606;2023-09-08T13:44:35;11.75;;;3.10;;
74495;SDS011;62979;55.720;37.606;2023-09-08T13:47:01;2.85;;;0.85;;
74495;SDS011;62979;55.720;37.606;2023-09-08T13:49:31;5.57;;;0.90;;
74495;SDS011;62979;55.720;37.606;2023-09-08T13:51:58;4.20;;;0.30;;
74495;SDS011;62979;55.720;37.606;2023-09-08T13:54:25;1.60;;;0.43;;
74495;SDS011;62979;55.720;37.606;2023-09-08T13:56:57;4.90;;;0.95;;
74495;SDS011;62979;55.720;37.606;2023-09-08T13:59:27;2.25;;;0.10;;
74495;SDS011;62979;55.720;37.606;2023-09-08T14:01:55;5.05;;;0.90;;
74495;SDS011;62979;55.720;37.606;2023-09-08T14:04:24;2.50;;;0.65;;
74495;SDS011;62979;55.720;37.606;2023-09-08T14:09:19;25.48;;;14.38;;
74495;SDS011;62979;55.720;37.606;2023-09-08T14:11:46;17.23;;;8.82;;
74495;SDS011;62979;55.720;37.606;2023-09-08T14:14:13;11.57;;;4.95;;
74495;SDS011;62979;55.720;37.606;2023-09-08T14:16:40;7.93;;;2.50;;
74495;SDS011;62979;55.720;37.606;2023-09-08T14:19:07;16.52;;;7.97;;
74495;SDS011;62979;55.720;37.606;2023-09-08T14:21:34;5.72;;;2.00;;
74495;SDS011;62979;55.720;37.606;2023-09-08T14:24:03;17.70;;;6.63;;
74495;SDS011;62979;55.720;37.606;2023-09-08T14:26:31;14.65;;;6.43;;
74495;SDS011;62979;55.720;37.606;2023-09-08T14:28:58;35.35;;;19.10;;
74495;SDS011;62979;55.720;37.606;2023-09-08T14:31:25;21.77;;;10.82;;
74495;SDS011;62979;55.720;37.606;2023-09-08T14:33:52;12.00;;;6.15;;
74495;SDS011;62979;55.720;37.606;2023-09-08T14:36:19;32.08;;;17.70;;
74495;SDS011;62979;55.720;37.606;2023-09-08T14:38:46;16.65;;;10.13;;
74495;SDS011;62979;55.720;37.606;2023-09-08T14:41:14;21.30;;;12.38;;
74495;SDS011;62979;55.720;37.606;2023-09-08T14:43:41;32.85;;;18.90;;
74495;SDS011;62979;55.720;37.606;2023-09-08T14:46:08;17.65;;;9.88;;
74495;SDS011;62979;55.720;37.606;2023-09-08T14:48:35;10.63;;;5.50;;
74495;SDS011;62979;55.720;37.606;2023-09-08T14:51:02;8.25;;;4.55;;
74495;SDS011;62979;55.720;37.606;2023-09-08T14:53:29;8.82;;;3.92;;
74495;SDS011;62979;55.720;37.606;2023-09-08T14:58:25;3.83;;;1.70;;
74495;SDS011;62979;55.720;37.606;2023-09-08T15:00:57;5.55;;;1.75;;
74495;SDS011;62979;55.720;37.606;2023-09-08T15:03:28;4.72;;;1.70;;
74495;SDS011;62979;55.720;37.606;2023-09-08T15:05:56;3.28;;;1.45;;
74495;SDS011;62979;55.720;37.606;2023-09-08T15:08:23;3.92;;;0.98;;
74495;SDS011;62979;55.720;37.606;2023-09-08T15:10:50;3.10;;;1.23;;
74495;SDS011;62979;55.720;37.606;2023-09-08T15:13:17;3.33;;;1.30;;